createdAt,value
2022-08-17T00:00:38.036Z,99969.11
2022-08-17T00:03:22.220Z,99967.84
2022-08-17T00:06:12.175Z,99968.48
2022-08-17T00:08:43.315Z,99970.70
2022-08-17T00:11:16.113Z,99968.55
2022-08-17T00:13:51.028Z,99968.02
2022-08-17T00:16:55.283Z,99966.23
2022-08-17T00:19:23.298Z,99966.59
2022-08-17T00:22:33.039Z,99968.40
2022-08-17T00:24:44.954Z,99970.73
2022-08-17T00:27:13.776Z,99969.52
2022-08-17T00:29:42.503Z,99971.79
2022-08-17T00:33:11.875Z,99976.15
2022-08-17T00:34:59.702Z,99976.25
2022-08-17T00:37:28.289Z,99975.45
2022-08-17T00:39:56.881Z,99976.16
2022-08-17T00:42:30.819Z,99977.01
2022-08-17T00:45:03.609Z,99977.70
2022-08-17T00:47:32.694Z,99975.13
2022-08-17T00:50:01.410Z,99978.50
2022-08-17T00:52:35.845Z,99975.98
2022-08-17T00:55:07.097Z,99976.65
2022-08-17T00:57:42.104Z,99972.84
2022-08-17T01:00:21.651Z,99972.55
2022-08-17T01:02:50.798Z,99973.45
2022-08-17T01:05:25.393Z,99975.73
2022-08-17T01:07:55.262Z,99973.98
2022-08-17T01:10:58.349Z,99975.48
2022-08-17T01:13:21.101Z,99972.27
2022-08-17T01:16:01.962Z,99971.66
2022-08-17T01:18:32.376Z,99971.96
2022-08-17T01:21:09.346Z,99973.21
2022-08-17T01:23:38.778Z,99974.45
2022-08-17T01:26:07.595Z,99974.70
2022-08-17T01:28:53.778Z,99977.20
2022-08-17T01:31:29.099Z,99976.95
2022-08-17T01:34:02.809Z,99980.80
2022-08-17T01:36:31.405Z,99977.67
2022-08-17T01:39:00.518Z,99979.00
2022-08-17T01:41:29.620Z,99973.75
2022-08-17T01:44:02.695Z,99974.36
2022-08-17T01:46:37.036Z,99973.17
2022-08-17T01:49:08.601Z,99970.88
2022-08-17T01:51:38.590Z,99969.44
2022-08-17T01:54:12.957Z,99967.09
2022-08-17T01:56:47.147Z,99968.44
2022-08-17T01:59:18.990Z,99963.58
2022-08-17T02:01:49.355Z,99969.29
2022-08-17T02:04:17.979Z,99967.39
2022-08-17T02:06:54.255Z,99970.55
2022-08-17T02:09:29.901Z,99970.61
2022-08-17T02:12:38.591Z,99971.60
2022-08-17T02:14:52.700Z,99973.79
2022-08-17T02:17:21.256Z,99973.61
2022-08-17T02:19:49.744Z,99973.37
2022-08-17T02:22:20.007Z,99974.27
2022-08-17T02:25:00.858Z,99969.61
2022-08-17T02:27:31.690Z,99970.71
2022-08-17T02:30:00.201Z,99968.30
2022-08-17T02:32:28.952Z,99969.23
2022-08-17T02:34:58.435Z,99969.16
2022-08-17T02:37:28.743Z,99965.60
2022-08-17T02:39:59.513Z,99964.02
2022-08-17T02:42:31.767Z,99963.80
2022-08-17T02:45:01.640Z,99965.94
2022-08-17T02:47:31.493Z,99963.83
2022-08-17T02:50:00.349Z,99961.95
2022-08-17T02:53:02.070Z,99957.64
2022-08-17T02:55:46.486Z,99960.27
2022-08-17T02:58:15.420Z,99960.20
2022-08-17T03:01:08.581Z,99966.05
2022-08-17T03:03:38.870Z,99965.05
2022-08-17T03:06:07.855Z,99969.27
2022-08-17T03:08:37.782Z,99970.23
2022-08-17T03:11:06.374Z,99969.69
2022-08-17T03:13:35.050Z,99969.56
2022-08-17T03:16:04.447Z,99969.21
2022-08-17T03:18:33.109Z,99973.32
2022-08-17T03:21:04.631Z,99975.65
2022-08-17T03:23:33.806Z,99975.78
2022-08-17T03:26:02.396Z,99975.15
2022-08-17T03:28:30.861Z,99973.91
2022-08-17T03:30:59.639Z,99975.10
2022-08-17T03:33:30.658Z,99974.33
2022-08-17T03:35:59.674Z,99977.16
2022-08-17T03:38:28.364Z,99979.75
2022-08-17T03:40:59.699Z,99981.84
2022-08-17T03:43:31.192Z,99986.66
2022-08-17T03:46:28.310Z,99987.64
2022-08-17T03:49:26.899Z,99987.60
2022-08-17T03:52:16.170Z,99988.79
2022-08-17T03:55:18.135Z,99986.58
2022-08-17T03:57:46.635Z,99991.70
2022-08-17T04:00:15.675Z,99995.89
2022-08-17T04:02:44.754Z,99990.68
2022-08-17T04:05:15.117Z,99993.06
2022-08-17T04:07:44.238Z,99991.52
2022-08-17T04:10:14.517Z,99988.77
2022-08-17T04:12:50.800Z,99992.48
2022-08-17T04:15:19.703Z,99995.36
2022-08-17T04:17:48.594Z,99996.31
2022-08-17T04:20:19.415Z,99996.23
2022-08-17T04:23:07.063Z,100000.10
2022-08-17T04:25:41.986Z,100001.96
2022-08-17T04:28:16.014Z,100005.27
2022-08-17T04:30:46.849Z,100003.43
2022-08-17T04:33:24.805Z,100010.05
2022-08-17T04:35:58.134Z,100006.16
2022-08-17T04:38:30.882Z,100005.44
2022-08-17T04:41:19.882Z,100011.73
2022-08-17T04:43:50.012Z,100012.40
2022-08-17T04:46:21.144Z,100014.75
2022-08-17T04:48:52.759Z,100010.70
2022-08-17T04:51:25.812Z,100013.35
2022-08-17T04:53:57.785Z,100014.31
2022-08-17T04:56:28.483Z,100013.68
2022-08-17T04:59:01.085Z,100015.17
2022-08-17T05:01:33.442Z,100016.49
2022-08-17T05:04:33.073Z,100015.05
2022-08-17T05:06:55.919Z,100018.13
2022-08-17T05:09:24.679Z,100016.04
2022-08-17T05:11:53.265Z,100018.52
2022-08-17T05:14:32.862Z,100018.75
2022-08-17T05:17:09.397Z,100024.27
2022-08-17T05:19:41.209Z,100025.73
2022-08-17T05:22:09.924Z,100025.70
2022-08-17T05:24:43.674Z,100026.33
2022-08-17T05:27:23.522Z,100032.52
2022-08-17T05:29:52.467Z,100036.89
2022-08-17T05:32:37.921Z,100040.37
2022-08-17T05:35:09.291Z,100038.54
2022-08-17T05:37:37.982Z,100035.03
2022-08-17T05:40:07.220Z,100040.77
2022-08-17T05:42:36.169Z,100048.92
2022-08-17T05:45:05.649Z,100048.30
2022-08-17T05:47:34.490Z,100051.92
2022-08-17T05:50:03.134Z,100051.66
2022-08-17T05:53:04.750Z,100051.56
2022-08-17T05:55:49.432Z,100050.38
2022-08-17T05:59:01.566Z,100054.09
2022-08-17T06:01:56.065Z,100055.02
2022-08-17T06:04:46.501Z,100056.11
2022-08-17T06:07:44.122Z,100060.39
2022-08-17T06:10:35.840Z,100067.15
2022-08-17T06:13:20.919Z,100068.83
2022-08-17T06:15:52.193Z,100070.58
2022-08-17T06:18:23.426Z,100070.36
2022-08-17T06:20:58.701Z,100068.40
2022-08-17T06:23:34.717Z,100071.59
2022-08-17T06:26:15.170Z,100072.59
2022-08-17T06:29:03.236Z,100072.46
2022-08-17T06:31:35.632Z,100072.80
2022-08-17T06:34:08.734Z,100073.98
2022-08-17T06:37:03.759Z,100076.45
2022-08-17T06:39:47.771Z,100079.76
2022-08-17T06:42:54.910Z,100081.45
2022-08-17T06:45:27.421Z,100073.61
2022-08-17T06:48:06.994Z,100074.96
2022-08-17T06:50:40.856Z,100075.81
2022-08-17T06:53:30.414Z,100074.39
2022-08-17T06:56:06.286Z,100074.88
2022-08-17T06:58:38.891Z,100073.77
2022-08-17T07:01:15.003Z,100071.52
2022-08-17T07:03:55.051Z,100074.11
2022-08-17T07:06:37.951Z,100074.34
2022-08-17T07:09:31.500Z,100075.11
2022-08-17T07:12:10.569Z,100079.25
2022-08-17T07:15:17.552Z,100080.67
2022-08-17T07:17:49.713Z,100081.50
2022-08-17T07:20:22.790Z,100082.91
2022-08-17T07:23:08.971Z,100083.19
2022-08-17T07:25:37.489Z,100083.17
2022-08-17T07:28:07.903Z,100086.91
2022-08-17T07:30:46.905Z,100090.46
2022-08-17T07:33:26.781Z,100091.94
2022-08-17T07:35:58.416Z,100091.52
2022-08-17T07:38:54.474Z,100085.77
2022-08-17T07:41:23.128Z,100085.10
2022-08-17T07:43:52.819Z,100085.83
2022-08-17T07:46:51.965Z,100082.94
2022-08-17T07:49:36.523Z,100086.77
2022-08-17T07:52:48.492Z,100089.37
2022-08-17T07:55:00.724Z,100089.89
2022-08-17T07:57:36.535Z,100084.37
2022-08-17T08:00:17.096Z,100079.55
2022-08-17T08:02:59.754Z,100074.73
2022-08-17T08:05:49.716Z,100074.27
2022-08-17T08:08:30.443Z,100075.51
2022-08-17T08:11:40.148Z,100077.53
2022-08-17T08:14:34.236Z,100080.41
2022-08-17T08:17:06.067Z,100083.29
2022-08-17T08:19:37.925Z,100083.41
2022-08-17T08:22:12.991Z,100083.45
2022-08-17T08:25:12.420Z,100087.52
2022-08-17T08:27:40.660Z,100091.06
2022-08-17T08:30:21.868Z,100099.36
2022-08-17T08:33:17.472Z,100102.70
2022-08-17T08:35:53.938Z,100104.66
2022-08-17T08:38:40.881Z,100110.57
2022-08-17T08:41:12.371Z,100108.91
2022-08-17T08:44:01.058Z,100108.89
2022-08-17T08:46:39.711Z,100108.60
2022-08-17T08:49:51.884Z,100107.92
2022-08-17T12:10:34.391Z,100156.38
2022-08-17T12:13:11.903Z,100156.54
2022-08-17T12:15:48.866Z,100155.44
2022-08-17T12:18:29.398Z,100155.54
2022-08-17T12:21:23.731Z,100156.25
2022-08-17T12:24:05.374Z,100154.12
2022-08-17T12:26:36.791Z,100156.45
2022-08-17T12:29:38.893Z,100156.36
2022-08-17T12:32:02.480Z,100159.77
2022-08-17T12:34:42.171Z,100166.30
2022-08-17T12:37:22.241Z,100168.54
2022-08-17T12:40:01.154Z,100169.65
2022-08-17T12:42:34.966Z,100169.55
2022-08-17T12:45:34.341Z,100171.64
2022-08-17T12:48:08.706Z,100176.73
2022-08-17T12:50:39.984Z,100177.45
2022-08-17T12:53:20.675Z,100178.59
2022-08-17T12:55:51.515Z,100174.66
2022-08-17T12:58:26.987Z,100170.10
2022-08-17T13:01:02.464Z,100172.11
2022-08-17T13:03:39.237Z,100167.14
2022-08-17T13:06:11.298Z,100166.67
2022-08-17T13:08:46.404Z,100164.38
2022-08-17T13:11:14.710Z,100166.79
2022-08-17T13:13:51.430Z,100163.90
2022-08-17T13:16:33.460Z,100165.27
2022-08-17T13:19:15.454Z,100169.20
2022-08-17T13:21:50.843Z,100171.48
2022-08-17T13:24:27.440Z,100176.36
2022-08-17T13:26:59.402Z,100177.20
2022-08-17T13:29:53.049Z,100174.20
2022-08-17T13:32:33.837Z,100174.95
2022-08-17T13:35:29.779Z,100174.05
2022-08-17T13:38:10.628Z,100175.48
2022-08-17T13:40:45.736Z,100177.86
2022-08-17T13:43:38.763Z,100175.56
2022-08-17T13:46:09.902Z,100176.84
2022-08-17T13:48:38.938Z,100176.10
2022-08-17T13:51:20.353Z,100174.63
2022-08-17T13:53:55.319Z,100173.89
2022-08-17T13:56:41.141Z,100169.13
2022-08-17T13:59:36.113Z,100170.17
2022-08-17T14:02:16.163Z,100164.83
2022-08-17T14:04:46.451Z,100170.23
2022-08-17T14:07:16.179Z,100167.10
2022-08-17T14:09:53.402Z,100159.34
2022-08-17T14:12:26.887Z,100160.46
2022-08-17T14:14:57.282Z,100167.38
2022-08-17T14:17:29.075Z,100164.36
2022-08-17T14:19:59.239Z,100167.48
2022-08-17T14:22:33.389Z,100163.09
2022-08-17T14:25:02.985Z,100161.52
2022-08-17T14:27:43.550Z,100162.47
2022-08-17T14:30:26.694Z,100158.02
2022-08-17T14:32:58.652Z,100161.61
2022-08-17T14:35:29.101Z,100162.23
2022-08-17T14:37:58.219Z,100162.25
2022-08-17T14:40:27.449Z,100161.35
2022-08-17T14:42:58.050Z,100160.78
2022-08-17T14:45:32.325Z,100159.22
2022-08-17T14:48:07.867Z,100158.13
2022-08-17T14:50:39.464Z,100157.80
2022-08-17T14:53:10.745Z,100156.90
2022-08-17T14:55:42.548Z,100159.50
2022-08-17T14:58:11.185Z,100159.49
2022-08-17T15:00:41.510Z,100159.19
2022-08-17T15:03:11.635Z,100157.20
2022-08-17T15:05:41.632Z,100154.41
2022-08-17T15:08:10.322Z,100151.19
2022-08-17T15:10:39.430Z,100150.95
2022-08-17T15:13:18.561Z,100144.55
2022-08-17T15:15:48.300Z,100144.35
2022-08-17T15:18:17.291Z,100148.54
2022-08-17T15:20:49.288Z,100146.63
2022-08-17T15:23:21.446Z,100144.97
2022-08-17T15:25:52.817Z,100147.85
2022-08-17T15:28:25.325Z,100144.64
2022-08-17T15:30:54.589Z,100140.58
2022-08-17T15:33:30.298Z,100136.04
2022-08-17T15:36:02.124Z,100137.62
2022-08-17T15:38:35.416Z,100137.20
2022-08-17T15:41:04.357Z,100139.98
2022-08-17T15:43:33.812Z,100138.20
2022-08-17T15:46:12.642Z,100139.58
2022-08-17T15:48:45.919Z,100142.98
2022-08-17T15:51:25.271Z,100145.87
2022-08-17T15:54:00.085Z,100136.46
